»·PEaware :: DCM204 KJAC-KASE

DCM204 :: KJAC-KASE

FLIGHT INFORMATION

Flight Status: Arrived
Operator:
DotCom
More flights by this operator :: More flights under this callsign
Pilot: Bill F. (18685)
Aircraft: Cessna 525C Citation CJ4
(C25C)
More flights by this aircraft type
Origin: KJAC Jackson Hole
United States
Destination: KASE Aspen-Pitkin Co/Sardy
United States
More flights between these airports :: More routes between these airports
Route: ALPIN2 KICNE OCS J206 DBL
File this flight plan on PilotEdge
Remarks:
Altitude:
(Current/Filed)
36,000ft
Speed:
(Current/Filed)
276kts
Departed: 22-Nov-21 08:21 PM
Arrived: 22-Nov-21 09:14 PM
Distance/Time
Traveled:
315nm/0:52
Distance/Time
To Go:
Arrived

Flight Plot

Page will automatically refresh every two minutes.

Flight plan parsing failed; only flown route is shown


Map Options




Map Legend


Flown Route
Filed Route
Departure Airport
Arrival Airport
Navaid (VOR, NDB)
Fix

Horizontal Profiles

Position Reports

Time Latitude Longitude Heading Altitude Ground
Speed
22-Nov-21 19:42 43.600186 -110.738273 289 6408ft 0kts
22-Nov-21 19:43 43.600186 -110.738273 289 6408ft 0kts
22-Nov-21 19:44 43.600186 -110.738273 289 6408ft 0kts
22-Nov-21 19:45 43.600186 -110.738273 289 6408ft 0kts
22-Nov-21 19:46 43.600186 -110.738273 289 6408ft 0kts
22-Nov-21 19:47 43.600186 -110.738273 289 6408ft 0kts
22-Nov-21 19:48 43.600186 -110.738273 289 6408ft 0kts
22-Nov-21 19:49 43.600186 -110.738273 289 6408ft 0kts
22-Nov-21 19:50 43.600186 -110.738273 289 6408ft 0kts
22-Nov-21 19:51 43.600186 -110.738273 289 6408ft 0kts
22-Nov-21 19:52 43.600186 -110.738273 289 6408ft 0kts
22-Nov-21 19:53 43.600186 -110.738273 289 6408ft 0kts
22-Nov-21 19:54 43.600186 -110.738273 289 6408ft 0kts
22-Nov-21 19:55 43.600186 -110.738273 289 6408ft 0kts
22-Nov-21 19:56 43.600186 -110.738273 289 6408ft 0kts
22-Nov-21 19:57 43.600186 -110.738273 289 6408ft 0kts
22-Nov-21 19:58 43.600186 -110.738273 289 6408ft 0kts
22-Nov-21 19:59 43.600186 -110.738273 289 6408ft 0kts
22-Nov-21 20:00 43.600186 -110.738273 289 6408ft 0kts
22-Nov-21 20:01 43.600186 -110.738273 289 6408ft 0kts
22-Nov-21 20:02 43.600186 -110.738273 289 6408ft 0kts
22-Nov-21 20:03 43.600186 -110.738273 289 6408ft 0kts
22-Nov-21 20:04 43.600186 -110.738273 289 6408ft 0kts
22-Nov-21 20:05 43.600186 -110.738273 289 6408ft 0kts
22-Nov-21 20:06 43.600186 -110.738273 289 6408ft 0kts
22-Nov-21 20:07 43.600186 -110.738273 289 6408ft 0kts
22-Nov-21 20:08 43.600186 -110.738273 289 6408ft 0kts
22-Nov-21 20:09 43.600194 -110.738295 297 6408ft 0kts
22-Nov-21 20:10 43.600291 -110.738424 289 6408ft 0kts
22-Nov-21 20:11 43.600291 -110.738424 289 6408ft 0kts
22-Nov-21 20:12 43.600291 -110.738424 289 6408ft 0kts
22-Nov-21 20:13 43.600291 -110.738424 289 6408ft 0kts
22-Nov-21 20:14 43.600398 -110.739514 20 6408ft 9kts
22-Nov-21 20:15 43.604154 -110.737689 19 6408ft 14kts
22-Nov-21 20:16 43.608656 -110.735486 20 6408ft 23kts
22-Nov-21 20:17 43.614976 -110.732595 324 6409ft 0kts
22-Nov-21 20:18 43.614976 -110.732595 324 6409ft 0kts
22-Nov-21 20:19 43.615310 -110.733373 276 6410ft 12kts
22-Nov-21 20:20 43.586953 -110.750030 203 7856ft 195kts
22-Nov-21 20:21 43.527930 -110.790686 208 12290ft 254kts
22-Nov-21 20:22 43.459750 -110.787934 136 17011ft 304kts
22-Nov-21 20:23 43.392865 -110.713783 150 21170ft 314kts
22-Nov-21 20:24 43.318583 -110.642194 147 23244ft 357kts
22-Nov-21 20:25 43.231790 -110.557503 147 24616ft 377kts
22-Nov-21 20:26 43.151353 -110.479361 148 28086ft 343kts
22-Nov-21 20:27 43.073645 -110.404450 148 30647ft 339kts
22-Nov-21 20:28 42.996671 -110.330267 148 32974ft 337kts
22-Nov-21 20:29 42.920353 -110.256879 148 35061ft 334kts
22-Nov-21 20:30 42.843368 -110.183255 148 36179ft 356kts
22-Nov-21 20:31 42.756777 -110.100978 148 36185ft 399kts
22-Nov-21 20:32 42.662720 -110.011483 148 36188ft 423kts
22-Nov-21 20:33 42.564530 -109.918401 148 36193ft 437kts
22-Nov-21 20:34 42.463758 -109.823280 148 36190ft 445kts
22-Nov-21 20:35 42.361284 -109.726970 148 36186ft 449kts
22-Nov-21 20:36 42.258402 -109.630721 148 36190ft 452kts
22-Nov-21 20:37 42.156734 -109.535948 148 36197ft 440kts
22-Nov-21 20:38 42.056813 -109.443234 148 36202ft 434kts
22-Nov-21 20:39 41.957879 -109.351792 148 36205ft 430kts
22-Nov-21 20:40 41.859374 -109.261095 148 36207ft 427kts
22-Nov-21 20:41 41.761503 -109.171332 148 36217ft 425kts
22-Nov-21 20:42 41.664091 -109.082312 149 36212ft 424kts
22-Nov-21 20:43 41.566867 -108.992638 145 36227ft 425kts
22-Nov-21 20:44 41.473533 -108.895880 145 36230ft 424kts
22-Nov-21 20:45 41.380055 -108.800083 145 36225ft 424kts
22-Nov-21 20:46 41.286607 -108.704722 145 36247ft 423kts
22-Nov-21 20:47 41.192882 -108.609748 145 36251ft 424kts
22-Nov-21 20:48 41.098743 -108.514659 145 36239ft 426kts
22-Nov-21 20:49 41.003113 -108.418539 145 35105ft 442kts
22-Nov-21 20:50 40.903517 -108.318818 145 33422ft 453kts
22-Nov-21 20:51 40.802778 -108.218874 145 30799ft 455kts
22-Nov-21 20:52 40.702715 -108.118950 144 28431ft 443kts
22-Nov-21 20:53 40.605707 -108.022808 144 26317ft 428kts
22-Nov-21 20:54 40.511947 -107.930299 144 24387ft 413kts
22-Nov-21 20:55 40.422246 -107.842146 144 23557ft 408kts
22-Nov-21 20:56 40.331704 -107.753364 144 22847ft 404kts
22-Nov-21 20:57 40.244635 -107.668250 144 22214ft 400kts
22-Nov-21 20:58 40.155644 -107.581560 144 21576ft 399kts
22-Nov-21 20:59 40.066778 -107.495185 144 21032ft 397kts
22-Nov-21 21:00 39.978782 -107.410039 145 19957ft 390kts
22-Nov-21 21:02 39.892548 -107.326937 145 18380ft 383kts
22-Nov-21 21:03 39.807494 -107.245086 145 16845ft 375kts
22-Nov-21 21:04 39.724608 -107.165653 145 15257ft 368kts
22-Nov-21 21:05 39.642750 -107.094464 158 14708ft 333kts
22-Nov-21 21:06 39.563023 -107.049027 156 14715ft 295kts
22-Nov-21 21:07 39.491317 -107.006327 158 14321ft 286kts
22-Nov-21 21:08 39.416848 -106.961879 157 12806ft 277kts
22-Nov-21 21:09 39.361187 -106.935057 162 12277ft 160kts
22-Nov-21 21:10 39.323483 -106.917067 163 11353ft 141kts
22-Nov-21 21:11 39.281590 -106.900995 159 9091ft 156kts
22-Nov-21 21:12 39.247138 -106.880248 163 8125ft 129kts
22-Nov-21 21:13 39.218506 -106.866624 159 7791ft 56kts
22-Nov-21 21:14 39.218960 -106.865501 312 7788ft 2kts
22-Nov-21 21:15 39.222678 -106.867415 339 7758ft 12kts
22-Nov-21 21:16 39.223196 -106.867218 76 7755ft 0kts
22-Nov-21 21:17 39.223196 -106.867218 76 7755ft 0kts
22-Nov-21 21:18 39.223196 -106.867218 76 7755ft 0kts
22-Nov-21 21:19 39.223196 -106.867218 76 7755ft 0kts
22-Nov-21 21:20 39.223196 -106.867218 76 7755ft 0kts
22-Nov-21 21:21 39.223196 -106.867218 76 7755ft 0kts
22-Nov-21 21:22 39.223196 -106.867218 76 7755ft 0kts
22-Nov-21 21:23 39.223196 -106.867218 76 7755ft 0kts
22-Nov-21 21:24 39.223196 -106.867218 76 7755ft 0kts
22-Nov-21 21:25 39.223196 -106.867218 76 7755ft 0kts
22-Nov-21 21:26 39.223196 -106.867218 76 7755ft 0kts
22-Nov-21 21:26 39.223196 -106.867218 76 7755ft 0kts

Navigation Log

Ident Type
Flight plan parsing failed, navigation log unavailable